createdAt,value
2019-05-11T00:01:57.423Z,90.46
2019-05-11T00:04:25.728Z,90.51
2019-05-11T00:06:54.043Z,90.57
2019-05-11T00:09:23.275Z,90.58
2019-05-11T00:11:51.612Z,90.62
2019-05-11T00:14:19.919Z,90.61
2019-05-11T00:16:48.525Z,90.57
2019-05-11T00:19:17.110Z,90.58
2019-05-11T00:21:45.783Z,90.61
2019-05-11T00:24:14.110Z,90.61
2019-05-11T00:26:42.434Z,90.54
2019-05-11T00:29:10.750Z,90.46
2019-05-11T00:31:39.115Z,90.38
2019-05-11T00:34:07.451Z,90.41
2019-05-11T00:36:35.755Z,90.49
2019-05-11T00:39:06.407Z,90.58
2019-05-11T00:41:34.963Z,90.57
2019-05-11T00:44:03.380Z,90.53
2019-05-11T00:46:31.686Z,90.50
2019-05-11T00:49:00.302Z,90.59
2019-05-11T00:51:28.627Z,90.59
2019-05-11T00:53:56.943Z,90.50
2019-05-11T00:56:25.506Z,90.44
2019-05-11T00:58:53.856Z,90.52
2019-05-11T01:01:22.840Z,90.59
2019-05-11T01:03:51.391Z,90.66
2019-05-11T01:06:19.755Z,90.66
2019-05-11T01:08:48.475Z,90.70
2019-05-11T01:11:16.815Z,90.69
2019-05-11T01:13:45.420Z,90.68
2019-05-11T01:16:14.003Z,90.75
2019-05-11T01:18:42.310Z,90.73
2019-05-11T01:21:10.967Z,90.73
2019-05-11T01:23:39.274Z,90.63
2019-05-11T01:26:07.619Z,90.47
2019-05-11T01:28:36.212Z,90.45
2019-05-11T01:31:04.619Z,90.51
2019-05-11T01:33:32.973Z,90.45
2019-05-11T01:36:01.555Z,90.49
2019-05-11T01:38:29.883Z,90.49
2019-05-11T01:40:59.266Z,90.37
2019-05-11T01:43:27.798Z,90.44
2019-05-11T01:45:56.490Z,90.36
2019-05-11T01:48:25.218Z,90.29
2019-05-11T01:50:53.502Z,90.20
2019-05-11T01:53:21.842Z,90.24
2019-05-11T01:55:50.135Z,90.17
2019-05-11T01:58:18.822Z,90.11
2019-05-11T02:00:47.206Z,90.32
2019-05-11T02:03:15.612Z,90.30
2019-05-11T02:05:43.938Z,90.27
2019-05-11T02:08:12.256Z,90.15
2019-05-11T02:10:40.622Z,90.11
2019-05-11T02:13:08.934Z,90.17
2019-05-11T02:15:37.410Z,90.05
2019-05-11T02:18:06.032Z,90.05
2019-05-11T02:20:34.753Z,90.22
2019-05-11T02:23:03.027Z,90.26
2019-05-11T02:25:31.347Z,90.67
2019-05-11T02:27:59.650Z,90.54
2019-05-11T02:30:28.649Z,90.85
2019-05-11T02:32:56.953Z,90.81
2019-05-11T02:35:25.298Z,90.87
2019-05-11T02:37:53.574Z,91.10
2019-05-11T02:40:22.098Z,91.12
2019-05-11T02:42:50.518Z,91.11
2019-05-11T02:45:31.203Z,91.31
2019-05-11T02:47:59.528Z,91.25
2019-05-11T02:50:27.910Z,91.06
2019-05-11T02:52:56.958Z,91.06
2019-05-11T02:55:25.382Z,91.23
2019-05-11T02:57:54.012Z,91.42
2019-05-11T03:00:25.768Z,91.50
2019-05-11T03:02:54.111Z,91.46
2019-05-11T03:05:22.416Z,91.34
2019-05-11T03:07:50.752Z,91.30
2019-05-11T03:10:19.383Z,91.39
2019-05-11T03:12:47.974Z,91.30
2019-05-11T03:15:16.295Z,91.28
2019-05-11T03:17:44.630Z,91.20
2019-05-11T03:20:12.968Z,91.28
2019-05-11T03:22:41.272Z,91.29
2019-05-11T03:25:09.599Z,91.31
2019-05-11T03:27:37.948Z,91.34
2019-05-11T03:30:09.261Z,91.20
2019-05-11T03:32:37.868Z,91.03
2019-05-11T03:35:06.383Z,90.89
2019-05-11T03:37:34.685Z,90.97
2019-05-11T03:40:03.194Z,90.95
2019-05-11T03:42:31.456Z,91.00
2019-05-11T03:44:59.818Z,90.99
2019-05-11T03:47:28.152Z,90.89
2019-05-11T03:49:56.730Z,90.69
2019-05-11T03:52:25.053Z,90.75
2019-05-11T03:54:53.373Z,90.86
2019-05-11T03:57:21.964Z,90.96
2019-05-11T03:59:50.292Z,90.98
2019-05-11T04:02:18.673Z,90.89
2019-05-11T04:04:47.021Z,90.97
2019-05-11T04:07:15.340Z,91.29
2019-05-11T04:09:43.640Z,91.27
2019-05-11T04:12:11.967Z,91.46
2019-05-11T04:14:40.342Z,91.54
2019-05-11T04:17:08.997Z,91.69
2019-05-11T04:19:37.337Z,92.40
2019-05-11T04:22:05.656Z,92.52
2019-05-11T04:24:33.990Z,92.82
2019-05-11T04:27:02.614Z,92.79
2019-05-11T04:29:30.945Z,92.83
2019-05-11T04:31:59.266Z,92.88
2019-05-11T04:34:27.579Z,92.91
2019-05-11T04:36:55.867Z,92.75
2019-05-11T04:39:24.201Z,93.18
2019-05-11T04:41:52.789Z,93.13
2019-05-11T04:44:21.107Z,93.05
2019-05-11T04:46:49.752Z,92.81
2019-05-11T04:49:18.067Z,93.12
2019-05-11T04:51:46.381Z,93.02
2019-05-11T04:54:14.987Z,92.90
2019-05-11T04:56:43.300Z,92.94
2019-05-11T04:59:11.773Z,92.81
2019-05-11T05:01:40.087Z,92.64
2019-05-11T05:04:13.662Z,92.75
2019-05-11T05:06:39.019Z,92.93
2019-05-11T05:09:07.896Z,92.95
2019-05-11T05:11:38.322Z,92.89
2019-05-11T05:14:08.201Z,92.83
2019-05-11T05:16:36.316Z,92.79
2019-05-11T05:19:04.677Z,92.46
2019-05-11T05:21:33.026Z,92.75
2019-05-11T05:24:01.662Z,92.61
2019-05-11T05:26:30.033Z,92.98
2019-05-11T05:28:58.308Z,93.30
2019-05-11T05:31:26.643Z,93.38
2019-05-11T05:33:55.278Z,93.05
2019-05-11T05:36:23.873Z,93.39
2019-05-11T05:38:52.208Z,93.38
2019-05-11T05:41:20.552Z,93.77
2019-05-11T05:43:48.866Z,92.66
2019-05-11T05:46:17.169Z,93.39
2019-05-11T05:48:45.520Z,92.88
2019-05-11T05:51:13.825Z,93.51
2019-05-11T05:53:42.418Z,93.77
2019-05-11T05:56:10.774Z,93.75
2019-05-11T05:58:39.072Z,93.75
2019-05-11T06:01:10.133Z,93.54
2019-05-11T06:03:37.436Z,92.88
2019-05-11T06:06:06.055Z,92.46
2019-05-11T06:08:34.365Z,92.88
2019-05-11T06:11:02.707Z,92.50
2019-05-11T06:13:44.652Z,93.10
2019-05-11T06:16:01.037Z,93.08
2019-05-11T06:18:29.345Z,93.29
2019-05-11T06:20:57.969Z,93.35
2019-05-11T06:23:26.550Z,92.36
2019-05-11T06:25:54.923Z,92.95
2019-05-11T06:28:23.223Z,92.77
2019-05-11T06:30:51.630Z,92.97
2019-05-11T06:33:19.919Z,93.52
2019-05-11T06:35:48.238Z,93.44
2019-05-11T06:38:16.556Z,93.03
2019-05-11T06:40:44.938Z,92.83
2019-05-11T06:43:13.263Z,92.17
2019-05-11T06:45:41.557Z,92.81
2019-05-11T06:48:09.883Z,92.82
2019-05-11T06:50:38.195Z,92.94
2019-05-11T06:53:06.510Z,92.90
2019-05-11T06:55:35.155Z,92.68
2019-05-11T06:58:03.465Z,92.26
2019-05-11T07:00:31.869Z,91.24
2019-05-11T07:03:00.179Z,91.16
2019-05-11T07:05:28.882Z,91.22
2019-05-11T07:07:57.190Z,89.89
2019-05-11T07:10:25.577Z,90.38
2019-05-11T07:12:53.883Z,90.75
2019-05-11T07:15:22.204Z,89.76
2019-05-11T07:17:50.497Z,89.68
2019-05-11T07:20:18.873Z,89.93
2019-05-11T07:22:47.219Z,89.99
2019-05-11T07:25:15.543Z,89.95
2019-05-11T07:27:44.188Z,90.16
2019-05-11T07:30:12.990Z,89.66
2019-05-11T07:32:41.314Z,88.80
2019-05-11T07:35:09.677Z,88.58
2019-05-11T07:37:38.599Z,88.30
2019-05-11T07:40:08.247Z,87.96
2019-05-11T07:42:38.006Z,87.63
2019-05-11T07:45:08.898Z,87.44
2019-05-11T07:47:38.116Z,86.84
2019-05-11T07:50:08.381Z,86.85
2019-05-11T07:52:37.832Z,86.14
2019-05-11T07:55:08.489Z,84.53
2019-05-11T07:57:38.958Z,85.77
2019-05-11T08:00:08.942Z,85.88
2019-05-11T08:02:38.706Z,85.28
2019-05-11T08:05:08.658Z,84.26
2019-05-11T08:07:37.903Z,84.65
2019-05-11T08:10:08.203Z,84.99
2019-05-11T08:12:38.990Z,84.32
2019-05-11T08:15:12.376Z,84.96
2019-05-11T08:17:38.210Z,84.07
2019-05-11T08:20:08.418Z,83.97
2019-05-11T08:22:37.705Z,84.54
2019-05-11T08:25:09.256Z,84.51
2019-05-11T08:27:37.839Z,83.96
2019-05-11T08:30:09.574Z,83.97
2019-05-11T08:32:38.696Z,83.74
2019-05-11T08:35:08.799Z,84.12
2019-05-11T08:37:38.834Z,84.08
2019-05-11T08:40:08.065Z,83.42
2019-05-11T08:42:37.900Z,83.83
2019-05-11T08:45:19.479Z,83.73
2019-05-11T08:47:37.717Z,82.84
2019-05-11T08:50:08.046Z,82.67
2019-05-11T08:52:38.645Z,82.78
2019-05-11T08:55:08.367Z,81.48
2019-05-11T08:57:38.724Z,81.64
2019-05-11T09:00:08.495Z,81.83
2019-05-11T09:02:38.367Z,81.75
2019-05-11T09:05:08.201Z,81.73
2019-05-11T09:07:38.447Z,81.86
2019-05-11T09:10:08.124Z,81.44
2019-05-11T09:12:38.187Z,80.70
2019-05-11T09:15:08.787Z,80.61
2019-05-11T09:17:38.272Z,80.13
2019-05-11T09:20:08.707Z,79.47
2019-05-11T09:22:38.163Z,79.15
2019-05-11T09:25:08.851Z,77.90
2019-05-11T09:27:37.783Z,77.54
2019-05-11T09:30:08.314Z,77.37
2019-05-11T09:32:38.510Z,77.51
2019-05-11T09:35:08.325Z,77.17
2019-05-11T09:37:38.121Z,76.19
2019-05-11T09:40:07.879Z,75.77
2019-05-11T09:42:38.808Z,76.65
2019-05-11T09:45:08.193Z,76.96
2019-05-11T09:47:38.664Z,77.27
2019-05-11T09:50:08.744Z,76.79
2019-05-11T09:52:38.484Z,76.44
2019-05-11T09:55:08.930Z,76.69
2019-05-11T09:57:38.153Z,76.58
2019-05-11T10:00:08.757Z,76.29
2019-05-11T10:02:38.557Z,76.97
2019-05-11T10:05:08.274Z,77.05
2019-05-11T10:07:38.116Z,77.11
2019-05-11T10:10:09.287Z,77.20
2019-05-11T10:12:38.119Z,76.64
2019-05-11T10:15:08.312Z,76.67
2019-05-11T10:17:38.316Z,77.18
2019-05-11T10:20:09.183Z,76.99
2019-05-11T10:22:38.438Z,77.10
2019-05-11T10:25:08.904Z,76.16
2019-05-11T10:27:38.333Z,76.79
2019-05-11T10:30:10.072Z,75.82
2019-05-11T10:32:39.021Z,75.22
2019-05-11T10:35:08.175Z,75.12
2019-05-11T10:37:38.888Z,74.55
2019-05-11T10:40:09.349Z,73.81
2019-05-11T10:42:37.941Z,74.10
2019-05-11T10:45:09.062Z,74.09
2019-05-11T10:47:38.331Z,74.42
2019-05-11T10:50:08.681Z,74.30
2019-05-11T10:52:38.011Z,74.52
2019-05-11T10:55:08.693Z,73.81
2019-05-11T10:57:38.655Z,74.56
2019-05-11T11:00:09.761Z,75.22
2019-05-11T11:02:38.651Z,75.13
2019-05-11T11:05:08.261Z,73.63
2019-05-11T11:07:38.440Z,72.99
2019-05-11T11:10:08.865Z,72.57
2019-05-11T11:12:38.505Z,72.29
2019-05-11T11:15:07.963Z,71.36
2019-05-11T11:17:38.243Z,71.46
2019-05-11T11:20:08.781Z,71.11
2019-05-11T11:22:43.641Z,71.37
2019-05-11T11:25:07.893Z,68.24
2019-05-11T11:27:38.098Z,69.31
2019-05-11T11:30:09.132Z,68.61
2019-05-11T11:32:38.311Z,68.69
2019-05-11T11:35:08.495Z,69.89
2019-05-11T11:37:38.669Z,71.03
2019-05-11T11:40:10.221Z,70.52
2019-05-11T11:42:38.530Z,70.40
2019-05-11T11:45:08.660Z,71.09
2019-05-11T11:47:38.484Z,71.52
2019-05-11T11:50:09.250Z,71.27
2019-05-11T11:52:38.311Z,70.84
2019-05-11T11:55:08.451Z,70.34
2019-05-11T11:57:38.002Z,71.46
2019-05-11T12:00:09.120Z,70.29
2019-05-11T12:02:38.810Z,70.09
2019-05-11T12:05:08.789Z,69.44
2019-05-11T12:07:38.650Z,69.79
2019-05-11T12:10:08.343Z,68.12
2019-05-11T12:12:38.695Z,66.77
2019-05-11T12:15:08.839Z,66.56
2019-05-11T12:17:37.792Z,66.92
2019-05-11T12:20:08.918Z,67.11
2019-05-11T12:22:38.645Z,66.00
2019-05-11T12:25:08.072Z,65.86
2019-05-11T12:27:38.290Z,65.71
2019-05-11T12:30:09.407Z,65.32
2019-05-11T12:32:39.619Z,63.35
2019-05-11T12:35:09.228Z,63.39
2019-05-11T12:37:37.860Z,63.53
2019-05-11T12:40:08.458Z,64.55
2019-05-11T12:42:38.082Z,64.59
2019-05-11T12:45:08.270Z,63.90
2019-05-11T12:47:38.529Z,63.23
2019-05-11T12:50:08.053Z,63.44
2019-05-11T12:52:38.252Z,62.99
2019-05-11T12:55:09.349Z,63.19
2019-05-11T12:57:38.581Z,63.99
2019-05-11T13:00:08.636Z,64.16
2019-05-11T13:02:38.774Z,63.86
2019-05-11T13:05:08.712Z,63.70
2019-05-11T13:07:39.298Z,63.43
2019-05-11T13:10:08.288Z,63.16
2019-05-11T13:12:38.651Z,63.91
2019-05-11T13:15:08.339Z,65.62
2019-05-11T13:17:38.391Z,65.55
2019-05-11T13:20:08.662Z,65.51
2019-05-11T13:22:38.110Z,65.26
2019-05-11T13:25:08.594Z,64.64
2019-05-11T13:27:38.680Z,63.27
2019-05-11T13:30:10.415Z,63.21
2019-05-11T13:32:39.116Z,63.44
2019-05-11T13:35:09.113Z,62.26
2019-05-11T13:37:38.699Z,62.38
2019-05-11T13:40:08.257Z,61.63
2019-05-11T13:42:38.597Z,61.23
2019-05-11T13:45:08.752Z,62.00
2019-05-11T13:47:50.832Z,61.75
2019-05-11T13:50:07.770Z,62.97
2019-05-11T13:52:38.403Z,63.70
2019-05-11T13:55:07.804Z,61.71
2019-05-11T13:57:38.008Z,62.68
2019-05-11T14:00:08.469Z,63.12
2019-05-11T14:02:37.994Z,63.15
2019-05-11T14:05:08.734Z,63.29
2019-05-11T14:07:38.120Z,61.82
2019-05-11T14:10:08.304Z,61.11
2019-05-11T14:12:38.516Z,60.36
2019-05-11T14:15:08.767Z,61.32
2019-05-11T14:17:37.994Z,61.32
2019-05-11T14:20:09.048Z,61.66
2019-05-11T14:22:38.639Z,62.32
2019-05-11T14:25:08.159Z,62.38
2019-05-11T14:27:38.857Z,61.79
2019-05-11T14:30:08.646Z,61.34
2019-05-11T14:32:38.818Z,60.03
2019-05-11T14:35:12.001Z,59.75
2019-05-11T14:37:38.139Z,59.66
2019-05-11T14:40:08.748Z,57.94
2019-05-11T14:42:38.194Z,57.89
2019-05-11T14:45:08.462Z,56.53
2019-05-11T14:47:38.762Z,56.66
2019-05-11T14:50:08.596Z,56.79
2019-05-11T14:52:38.992Z,58.06
2019-05-11T14:55:08.283Z,58.05
2019-05-11T14:57:36.691Z,58.43
2019-05-11T15:00:08.286Z,58.86
2019-05-11T15:02:48.584Z,59.31
2019-05-11T15:05:18.331Z,59.59
2019-05-11T15:07:47.935Z,59.68
2019-05-11T15:10:18.710Z,59.80
2019-05-11T15:12:48.938Z,59.87
2019-05-11T15:15:18.627Z,60.21
2019-05-11T15:17:49.244Z,59.92
2019-05-11T15:20:17.856Z,60.64
2019-05-11T15:22:48.654Z,61.00
2019-05-11T15:25:19.302Z,60.67
2019-05-11T15:27:48.764Z,60.40
2019-05-11T15:30:18.349Z,60.06
2019-05-11T15:32:48.225Z,58.98
2019-05-11T15:35:18.481Z,59.05
2019-05-11T15:37:47.917Z,59.00
2019-05-11T15:40:18.792Z,59.01
2019-05-11T15:42:48.562Z,60.06
2019-05-11T15:45:19.000Z,60.32
2019-05-11T15:47:48.806Z,60.08
2019-05-11T15:50:19.774Z,59.64
2019-05-11T15:52:48.693Z,59.37
2019-05-11T15:55:18.843Z,59.30
2019-05-11T15:57:48.267Z,58.52
2019-05-11T16:00:17.977Z,58.65
2019-05-11T16:02:48.742Z,58.19
2019-05-11T16:05:18.370Z,58.10
2019-05-11T16:07:49.063Z,57.84
2019-05-11T16:10:18.732Z,58.25
2019-05-11T16:12:48.540Z,58.67
2019-05-11T16:15:19.183Z,58.69
2019-05-11T16:17:48.609Z,56.96
2019-05-11T16:20:18.505Z,56.99
2019-05-11T16:22:48.019Z,54.76
2019-05-11T16:25:19.291Z,53.47
2019-05-11T16:27:46.795Z,50.01
2019-05-11T16:30:15.263Z,49.93
2019-05-11T16:32:43.576Z,50.65
2019-05-11T16:35:12.133Z,50.84
2019-05-11T16:37:40.781Z,50.79
2019-05-11T16:40:09.684Z,50.18
2019-05-11T16:42:38.671Z,48.40
2019-05-11T16:45:08.541Z,48.54
2019-05-11T16:47:39.097Z,49.26
2019-05-11T16:50:08.858Z,46.35
2019-05-11T16:52:38.650Z,46.47
2019-05-11T16:55:07.861Z,46.37
2019-05-11T16:57:38.186Z,46.01
2019-05-11T17:00:08.855Z,46.01
2019-05-11T17:02:38.202Z,46.63
2019-05-11T17:05:07.946Z,46.29
2019-05-11T17:07:37.696Z,46.35
2019-05-11T17:10:08.487Z,46.58
2019-05-11T17:12:38.570Z,46.79
2019-05-11T17:15:09.063Z,45.36
2019-05-11T17:17:37.381Z,44.98
2019-05-11T17:20:08.058Z,45.13
2019-05-11T17:22:38.778Z,45.19
2019-05-11T17:25:08.573Z,45.31
2019-05-11T17:27:37.779Z,44.88
2019-05-11T17:30:10.420Z,45.01
2019-05-11T17:32:38.717Z,45.18
2019-05-11T17:35:08.421Z,45.00
2019-05-11T17:37:38.056Z,44.99
2019-05-11T17:40:09.016Z,45.51
2019-05-11T17:42:37.831Z,45.77
2019-05-11T17:45:08.121Z,45.88
2019-05-11T17:47:38.843Z,46.32
2019-05-11T17:50:08.356Z,46.55
2019-05-11T17:52:38.494Z,46.93
2019-05-11T17:55:06.678Z,47.23
2019-05-11T17:57:34.980Z,47.62
2019-05-11T18:00:07.338Z,47.95
2019-05-11T18:02:35.812Z,48.22
2019-05-11T18:05:05.035Z,48.56
2019-05-11T18:07:33.352Z,48.60
2019-05-11T18:10:01.674Z,49.10
2019-05-11T18:12:30.267Z,49.01
2019-05-11T18:14:58.896Z,49.30
2019-05-11T18:17:27.248Z,49.46
2019-05-11T18:19:59.246Z,49.52
2019-05-11T18:22:28.356Z,49.67
2019-05-11T18:24:58.117Z,49.76
2019-05-11T18:27:27.851Z,49.45
2019-05-11T18:29:58.067Z,49.55
2019-05-11T18:32:28.434Z,49.42
2019-05-11T18:34:58.831Z,49.45
2019-05-11T18:37:28.066Z,49.28
2019-05-11T18:39:58.508Z,49.20
2019-05-11T18:42:27.297Z,49.07
2019-05-11T18:44:58.008Z,49.20
2019-05-11T18:47:25.626Z,49.43
2019-05-11T18:49:53.938Z,49.63
2019-05-11T18:52:22.282Z,49.82
2019-05-11T18:54:50.925Z,50.17
2019-05-11T18:57:19.228Z,50.60
2019-05-11T18:59:48.423Z,50.82
2019-05-11T19:02:17.084Z,51.06
2019-05-11T19:04:45.371Z,51.44
2019-05-11T19:07:17.025Z,51.63
2019-05-11T19:09:44.045Z,51.74
2019-05-11T19:12:12.807Z,51.94
2019-05-11T19:14:41.111Z,52.08
2019-05-11T19:17:09.495Z,52.28
2019-05-11T19:19:38.045Z,52.58
2019-05-11T19:22:08.802Z,52.95
2019-05-11T19:24:38.313Z,53.05
2019-05-11T19:27:08.129Z,53.11
2019-05-11T19:29:37.963Z,53.04
2019-05-11T19:32:10.768Z,52.84
2019-05-11T19:34:38.864Z,53.00
2019-05-11T19:37:08.646Z,53.17
2019-05-11T19:39:38.497Z,53.34
2019-05-11T19:42:07.830Z,53.49
2019-05-11T19:44:38.479Z,53.49
2019-05-11T19:47:08.748Z,53.67
2019-05-11T19:49:38.405Z,53.81
2019-05-11T19:52:08.614Z,54.10
2019-05-11T19:54:38.235Z,54.25
2019-05-11T19:57:08.331Z,54.41
2019-05-11T19:59:38.682Z,54.42
2019-05-11T20:02:08.454Z,54.36
2019-05-11T20:04:38.702Z,54.61
2019-05-11T20:07:08.710Z,54.70
2019-05-11T20:09:38.708Z,54.74
2019-05-11T20:12:07.235Z,54.92
2019-05-11T20:14:37.295Z,55.07
2019-05-11T20:17:05.549Z,55.21
2019-05-11T20:19:33.923Z,55.23
2019-05-11T20:22:02.689Z,55.42
2019-05-11T20:24:31.261Z,55.83
2019-05-11T20:26:59.649Z,55.92
2019-05-11T20:29:28.229Z,55.99
2019-05-11T20:31:57.858Z,56.36
2019-05-11T20:34:28.849Z,56.50
2019-05-11T20:36:58.675Z,56.78
2019-05-11T20:39:28.614Z,57.13
2019-05-11T20:41:58.136Z,57.22
2019-05-11T20:44:28.690Z,57.49
2019-05-11T20:46:58.054Z,57.58
2019-05-11T20:49:28.269Z,57.89
2019-05-11T20:51:57.997Z,57.99
2019-05-11T20:54:28.152Z,58.27
2019-05-11T20:56:58.499Z,58.52
2019-05-11T20:59:28.967Z,58.69
2019-05-11T21:01:58.651Z,59.00
2019-05-11T21:04:28.204Z,59.23
2019-05-11T21:06:57.941Z,59.37
2019-05-11T21:09:28.771Z,59.48
2019-05-11T21:11:58.909Z,59.47
2019-05-11T21:14:28.821Z,59.67
2019-05-11T21:16:58.651Z,59.82
2019-05-11T21:19:28.334Z,59.93
2019-05-11T21:21:58.976Z,60.13
2019-05-11T21:24:28.113Z,60.23
2019-05-11T21:26:58.473Z,60.41
2019-05-11T21:29:28.323Z,60.68
2019-05-11T21:31:58.990Z,60.77
2019-05-11T21:34:28.001Z,61.15
2019-05-11T21:36:56.407Z,61.46
2019-05-11T21:39:24.706Z,61.79
2019-05-11T21:41:53.002Z,61.96
2019-05-11T21:44:21.398Z,62.01
2019-05-11T21:46:50.059Z,62.26
2019-05-11T21:49:18.625Z,62.33
2019-05-11T21:51:49.375Z,62.52
2019-05-11T21:54:17.153Z,62.72
2019-05-11T21:56:45.741Z,62.67
2019-05-11T21:59:14.027Z,62.83
2019-05-11T22:01:42.371Z,63.13
2019-05-11T22:04:11.319Z,63.28
2019-05-11T22:06:40.076Z,63.41
2019-05-11T22:09:08.860Z,63.66
2019-05-11T22:11:38.125Z,63.88
2019-05-11T22:14:08.248Z,64.09
2019-05-11T22:16:38.751Z,64.08
2019-05-11T22:19:08.912Z,64.39
2019-05-11T22:21:36.779Z,64.50
2019-05-11T22:24:05.089Z,64.68
2019-05-11T22:26:33.394Z,64.84
2019-05-11T22:29:02.023Z,65.12
2019-05-11T22:31:30.595Z,65.27
2019-05-11T22:33:59.190Z,65.39
2019-05-11T22:36:28.224Z,65.54
2019-05-11T22:38:58.725Z,65.79
2019-05-11T22:41:26.823Z,66.13
2019-05-11T22:43:55.128Z,66.08
2019-05-11T22:46:23.745Z,66.15
2019-05-11T22:48:52.060Z,66.45
2019-05-11T22:51:20.356Z,66.63
2019-05-11T22:53:50.528Z,66.84
2019-05-11T22:56:20.099Z,67.02
2019-05-11T22:58:49.966Z,67.26
2019-05-11T23:01:18.837Z,67.42
2019-05-11T23:03:47.630Z,67.55
2019-05-11T23:06:17.985Z,67.64
2019-05-11T23:08:48.361Z,67.83
2019-05-11T23:11:17.965Z,67.86
2019-05-11T23:13:47.932Z,67.95
2019-05-11T23:16:18.020Z,68.00
2019-05-11T23:18:48.107Z,68.40
2019-05-11T23:21:16.507Z,68.44
2019-05-11T23:23:44.792Z,68.63
2019-05-11T23:26:13.474Z,68.75
2019-05-11T23:28:41.771Z,68.84
2019-05-11T23:31:10.067Z,68.91
2019-05-11T23:33:38.575Z,69.05
2019-05-11T23:36:07.790Z,69.12
2019-05-11T23:38:38.655Z,69.42
2019-05-11T23:41:08.277Z,69.68
2019-05-11T23:43:38.410Z,69.80
2019-05-11T23:46:08.307Z,69.90
2019-05-11T23:48:38.613Z,69.97
2019-05-11T23:51:08.725Z,70.08
2019-05-11T23:53:38.772Z,70.30
2019-05-11T23:56:07.181Z,70.56
2019-05-11T23:58:35.481Z,71.07
